EYVIEYKA

Guest
Details From EYVI - Vilnius Intl
To EYKA - Kaunas Intl
Flight Number -
Tags Generated
Created
Modified
Stats Distance 47 nm / 87 km
Max Altitude 0 ft / 0 m
Waypoints 2
Social Downloads 2
Likes 0
Share VATSIM

Download

Looking for another format? Having issues loading an existing format? Contact us
Advertisement - Login to hide

Notes

Generated

Route

EYVI EYKA

ID Type Via Altitude Latitude Longitude Leg Dist Tot Dist Heading (true) Name
O EYVI APT - 0 ft / 0 m 54.62373˚ 25.27855˚ - 0 nm - -
O EYKA APT - 0 ft / 0 m 54.96267˚ 24.05949˚ 46 nm 46 nm 296° / 295° -

Altitude Profile

Advertisement - Login to hide

EYVI

Details ICAO EYVI (VNO)
Name VILNIUS INTL
Region Lithuania
Timezone Europe/Vilnius (UTC+2.0)
Stats Elevation 646 ft / 197 m (AMSL)
Location 54.634166° 25.285796°
Runways 1
Magnetic Variation 7.469° E

METAR

EYVI 111920Z 16012KT 9999 BKN005 01/M00 Q0999 R19/2///95 NOSIG

Decode

TAF

TAF TAF EYVI 111705Z 1118/1218 16010G20KT 6000 BKN005 TEMPO 1118/1124 3000 BR BKN003 PROB40 TEMPO 1118/1124 -FZDZ BECMG 1205/1207 BKN010 OVC030

Decode

Departure Runways

ID Width Length Bearing (true) Bearing (mag) Surface Threshold Offset Overrun Length
02 164 ft / 50 m 8,210 ft / 2,502 m 21.89° 14.42° Asphalt 0 ft / 0 m 151 ft / 46 m
20 164 ft / 50 m 8,210 ft / 2,502 m 201.91° 194.44° Asphalt 0 ft / 0 m 0 ft / 0 m

EYKA

Details ICAO EYKA (KUN)
Name Kaunas Intl
Region Lithuania
Timezone Europe/Vilnius (UTC+2.0)
Stats Elevation 256 ft / 78 m (AMSL)
Location 54.963881° 24.084001°
Runways 1
Magnetic Variation 7.208° E

METAR

EYKA 111920Z 14008KT 100V170 9000 NSC 02/M01 Q0998 R08/1///95

Decode

TAF

TAF EYKA 111106Z 1112/1212 16012KT 5000 BR OVC010 TEMPO 1112/1116 1500 SNRA OVC005 TEMPO 1116/1119 OVC005 BECMG 1119/1120 BKN005

Decode

Destination Runways

ID Width Length Bearing (true) Bearing (mag) Surface Threshold Offset Overrun Length
08 148 ft / 45 m 10,309 ft / 3,142 m 85.05° 77.84° Asphalt 1,116 ft / 340 m 240 ft / 73 m
26 148 ft / 45 m 10,309 ft / 3,142 m 265.09° 257.88° Asphalt 789 ft / 240 m 240 ft / 73 m

Approach Navaids

Runway Type Ident Frequency Range Bearing (true) Bearing (mag) Slope Elevation
08 Localiser IKM 109.50 MHz 18 nm / 33 km 85.09° 77.89° - 256 ft / 78 m (AMSL)
08 Glidescope IKM 109.50 MHz 10 nm / 19 km 85.07° 77.86° 3.00° 256 ft / 78 m (AMSL)
26 Localiser ISE 109.90 MHz 18 nm / 33 km 265.04° 257.84° - 256 ft / 78 m (AMSL)
26 Glidescope ISE 109.90 MHz 10 nm / 19 km 265.07° 257.86° 3.00° 256 ft / 78 m (AMSL)

Popular Alternatives